createdAt,value
2019-02-07T00:01:19.650Z,7.17
2019-02-07T00:04:10.586Z,7.60
2019-02-07T00:06:54.685Z,6.83
2019-02-07T00:09:46.677Z,6.70
2019-02-07T00:12:37.599Z,6.73
2019-02-07T00:15:20.952Z,7.00
2019-02-07T00:18:11.965Z,6.03
2019-02-07T00:20:55.758Z,6.47
2019-02-07T00:23:47.278Z,7.17
2019-02-07T00:26:30.470Z,6.70
2019-02-07T00:29:21.748Z,6.57
2019-02-07T00:32:05.362Z,7.00
2019-02-07T00:35:09.182Z,7.03
2019-02-07T00:38:19.417Z,7.23
2019-02-07T00:41:22.726Z,7.30
2019-02-07T00:44:33.264Z,6.67
2019-02-07T00:47:35.761Z,7.53
2019-02-07T00:50:46.036Z,7.37
2019-02-07T00:53:48.670Z,7.03
2019-02-07T00:56:58.921Z,7.30
2019-02-07T01:00:02.074Z,6.20
2019-02-07T01:03:12.358Z,7.20
2019-02-07T01:06:17.320Z,7.80
2019-02-07T01:09:27.596Z,7.70
2019-02-07T01:12:30.215Z,6.93
2019-02-07T01:15:40.535Z,7.30
2019-02-07T01:18:43.232Z,6.63
2019-02-07T01:21:53.507Z,7.07
2019-02-07T01:24:56.245Z,6.80
2019-02-07T01:28:06.486Z,7.63
2019-02-07T01:31:09.678Z,7.73
2019-02-07T01:34:19.968Z,7.87
2019-02-07T01:37:22.468Z,7.70
2019-02-07T01:40:32.709Z,6.90
2019-02-07T01:43:35.946Z,6.87
2019-02-07T01:46:46.199Z,7.03
2019-02-07T01:49:49.279Z,7.97
2019-02-07T01:52:52.302Z,7.23
2019-02-07T01:56:02.554Z,7.27
2019-02-07T01:59:05.205Z,6.93
2019-02-07T02:02:15.516Z,7.70
2019-02-07T02:05:19.672Z,7.23
2019-02-07T02:08:23.354Z,8.10
2019-02-07T02:11:33.620Z,7.87
2019-02-07T02:14:36.863Z,7.77
2019-02-07T02:17:47.138Z,8.00
2019-02-07T02:20:50.320Z,8.00
2019-02-07T02:23:53.343Z,8.20
2019-02-07T02:27:03.568Z,8.67
2019-02-07T02:30:10.065Z,8.20
2019-02-07T02:33:20.335Z,8.17
2019-02-07T02:36:23.053Z,7.33
2019-02-07T02:39:25.527Z,8.37
2019-02-07T02:42:35.808Z,8.00
2019-02-07T02:45:38.695Z,8.50
2019-02-07T02:48:48.983Z,8.13
2019-02-07T02:51:52.247Z,8.00
2019-02-07T02:54:56.533Z,8.20
2019-02-07T02:58:07.320Z,9.40
2019-02-07T03:01:29.590Z,9.10
2019-02-07T03:04:44.155Z,9.13
2019-02-07T03:08:13.223Z,9.20
2019-02-07T03:11:27.185Z,9.03
2019-02-07T03:14:56.272Z,8.97
2019-02-07T03:18:11.778Z,8.77
2019-02-07T03:21:40.983Z,9.17
2019-02-07T03:25:03.247Z,8.73
2019-02-07T03:28:24.562Z,9.50
2019-02-07T03:31:46.868Z,8.80
2019-02-07T03:35:09.119Z,8.70
2019-02-07T03:38:38.276Z,8.53
2019-02-07T03:42:06.244Z,9.17
2019-02-07T03:48:50.210Z,8.23
2019-02-07T03:52:12.050Z,8.27
2019-02-07T03:55:33.402Z,7.80
2019-02-07T03:58:54.762Z,7.67
2019-02-07T04:02:16.177Z,7.47
2019-02-07T04:05:45.269Z,6.80
2019-02-07T04:09:07.329Z,6.87
2019-02-07T04:12:36.412Z,7.07
2019-02-07T04:15:58.475Z,6.87
2019-02-07T04:19:20.218Z,7.30
2019-02-07T04:22:42.287Z,6.97
2019-02-07T04:26:05.121Z,7.10
2019-02-07T04:29:22.764Z,6.17
2019-02-07T04:32:41.550Z,6.93
2019-02-07T04:36:10.701Z,6.00
2019-02-07T04:39:35.498Z,6.20
2019-02-07T04:43:25.065Z,5.97
2019-02-07T04:46:46.750Z,5.97
2019-02-07T04:50:15.801Z,5.90
2019-02-07T04:53:35.956Z,5.97
2019-02-07T04:57:05.043Z,6.30
2019-02-07T05:00:32.264Z,6.37
2019-02-07T05:04:01.377Z,6.80
2019-02-07T05:07:23.786Z,5.80
2019-02-07T05:10:34.019Z,5.90
2019-02-07T05:14:03.132Z,5.70
2019-02-07T05:17:25.263Z,5.87
2019-02-07T05:20:38.938Z,6.13
2019-02-07T05:23:56.176Z,5.80
2019-02-07T05:27:19.884Z,6.07
2019-02-07T05:30:49.251Z,6.30
2019-02-07T05:34:17.098Z,6.40
2019-02-07T05:37:49.726Z,6.80
2019-02-07T05:41:11.244Z,7.30
2019-02-07T05:44:32.817Z,7.03
2019-02-07T05:48:01.902Z,6.00
2019-02-07T05:51:23.993Z,6.97
2019-02-07T05:54:53.074Z,7.60
2019-02-07T05:58:14.537Z,7.13
2019-02-07T06:01:43.644Z,7.00
2019-02-07T06:05:11.740Z,6.80
2019-02-07T06:08:40.879Z,8.33
2019-02-07T06:12:02.496Z,7.20
2019-02-07T06:15:31.779Z,7.67
2019-02-07T06:18:53.569Z,6.87
2019-02-07T06:22:22.668Z,7.83
2019-02-07T06:25:44.064Z,7.87
2019-02-07T06:29:13.145Z,7.23
2019-02-07T06:32:38.149Z,7.83
2019-02-07T06:36:07.234Z,7.27
2019-02-07T06:39:29.992Z,7.97
2019-02-07T06:42:59.075Z,7.00
2019-02-07T06:46:20.755Z,6.63
2019-02-07T06:49:49.865Z,7.90
2019-02-07T06:53:04.148Z,8.00
2019-02-07T06:56:33.240Z,7.43
2019-02-07T06:59:54.664Z,7.70
2019-02-07T07:03:23.888Z,7.93
2019-02-07T07:06:34.223Z,7.60
2019-02-07T07:09:56.589Z,7.63
2019-02-07T07:13:16.645Z,6.60
2019-02-07T07:16:38.365Z,7.20
2019-02-07T07:20:07.446Z,7.40
2019-02-07T07:23:29.107Z,7.60
2019-02-07T07:26:51.151Z,7.33
2019-02-07T07:30:16.080Z,7.13
2019-02-07T07:33:45.203Z,7.40
2019-02-07T07:37:05.276Z,7.37
2019-02-07T07:40:34.358Z,8.03
2019-02-07T07:43:51.195Z,7.23
2019-02-07T07:47:22.002Z,7.70
2019-02-07T07:50:49.918Z,8.20
2019-02-07T07:54:20.570Z,7.50
2019-02-07T07:57:34.614Z,7.37
2019-02-07T08:01:03.712Z,7.50
2019-02-07T08:04:29.165Z,8.20
2019-02-07T08:07:49.512Z,7.30
2019-02-07T08:11:06.911Z,7.63
2019-02-07T08:14:35.648Z,8.43
2019-02-07T08:18:00.257Z,7.50
2019-02-07T08:21:22.094Z,7.67
2019-02-07T08:24:43.787Z,7.70
2019-02-07T08:28:06.165Z,7.80
2019-02-07T08:31:35.269Z,7.63
2019-02-07T08:34:56.866Z,7.13
2019-02-07T08:38:25.965Z,6.70
2019-02-07T08:41:37.816Z,6.27
2019-02-07T08:45:07.000Z,6.40
2019-02-07T08:48:26.891Z,6.87
2019-02-07T08:51:54.874Z,6.20
2019-02-07T08:55:24.476Z,5.90
2019-02-07T08:58:35.773Z,6.07
2019-02-07T09:02:04.896Z,5.63
2019-02-07T09:05:26.334Z,5.40
2019-02-07T09:08:40.393Z,5.77
2019-02-07T09:12:09.483Z,4.60
2019-02-07T09:15:28.496Z,5.73
2019-02-07T09:18:57.582Z,5.33
2019-02-07T09:22:25.265Z,5.50
2019-02-07T09:25:52.589Z,6.20
2019-02-07T09:29:14.759Z,6.27
2019-02-07T09:32:43.894Z,6.13
2019-02-07T09:36:05.969Z,5.87
2019-02-07T09:39:35.079Z,4.70
2019-02-07T09:42:56.721Z,5.00
2019-02-07T09:46:27.337Z,5.03
2019-02-07T09:49:48.866Z,4.40
2019-02-07T09:53:24.148Z,4.10
2019-02-07T09:56:47.306Z,3.50
2019-02-07T10:00:09.408Z,3.37
2019-02-07T10:03:27.713Z,3.73
2019-02-07T10:06:56.823Z,2.90
2019-02-07T10:10:19.131Z,3.00
2019-02-07T10:13:42.079Z,3.73
2019-02-07T10:17:03.432Z,3.07
2019-02-07T10:20:32.595Z,2.90
2019-02-07T10:23:50.564Z,2.50
2019-02-07T10:27:19.817Z,3.00
2019-02-07T10:30:33.199Z,2.90
2019-02-07T10:33:54.752Z,2.60
2019-02-07T10:37:23.919Z,3.30
2019-02-07T10:40:40.171Z,2.43
2019-02-07T10:44:10.991Z,3.03
2019-02-07T10:47:32.393Z,2.67
2019-02-07T10:51:03.222Z,2.67
2019-02-07T10:54:25.506Z,2.43
2019-02-07T10:57:54.935Z,2.10
2019-02-07T11:01:14.314Z,2.70
2019-02-07T11:04:43.813Z,2.03
2019-02-07T11:08:05.326Z,2.53
2019-02-07T11:11:31.367Z,3.03
2019-02-07T11:14:53.038Z,2.97
2019-02-07T11:18:14.761Z,2.90
2019-02-07T11:21:36.252Z,2.73
2019-02-07T11:24:58.254Z,3.07
2019-02-07T11:28:19.581Z,2.73
2019-02-07T11:31:40.319Z,2.93
2019-02-07T11:35:02.007Z,2.90
2019-02-07T11:38:23.339Z,2.93
2019-02-07T11:41:52.460Z,3.13
2019-02-07T11:45:14.870Z,2.40
2019-02-07T11:48:32.865Z,2.80
2019-02-07T11:51:54.233Z,2.80
2019-02-07T11:55:25.103Z,3.07
2019-02-07T11:58:46.904Z,2.80
2019-02-07T12:02:09.492Z,2.97
2019-02-07T12:05:38.725Z,3.47
2019-02-07T12:08:49.636Z,2.80
2019-02-07T12:12:18.764Z,2.57
2019-02-07T12:15:40.231Z,2.80
2019-02-07T12:19:17.649Z,3.20
2019-02-07T12:22:33.292Z,2.67
2019-02-07T12:26:02.426Z,2.77
2019-02-07T12:29:24.137Z,3.10
2019-02-07T12:35:46.441Z,2.87
2019-02-07T12:39:07.740Z,3.10
2019-02-07T12:42:29.431Z,3.27
2019-02-07T12:45:58.568Z,2.80
2019-02-07T12:49:28.920Z,2.90
2019-02-07T12:52:51.512Z,2.77
2019-02-07T12:56:12.917Z,2.60
2019-02-07T12:59:40.453Z,2.83
2019-02-07T13:03:09.573Z,2.63
2019-02-07T13:06:34.452Z,2.67
2019-02-07T13:09:58.704Z,2.80
2019-02-07T13:13:52.464Z,2.77
2019-02-07T13:17:14.107Z,2.67
2019-02-07T13:20:34.800Z,2.43
2019-02-07T13:24:03.973Z,1.90
2019-02-07T13:27:18.485Z,2.03
2019-02-07T13:30:47.563Z,3.00
2019-02-07T13:34:12.527Z,2.10
2019-02-07T13:37:41.714Z,2.40
2019-02-07T13:41:09.372Z,2.70
2019-02-07T13:44:36.755Z,2.33
2019-02-07T13:48:05.854Z,2.20
2019-02-07T13:51:28.020Z,2.07
2019-02-07T13:54:57.139Z,2.17
2019-02-07T13:58:19.259Z,2.40
2019-02-07T14:01:48.442Z,2.13
2019-02-07T14:05:10.215Z,2.00
2019-02-07T14:08:39.327Z,2.90
2019-02-07T14:12:01.457Z,2.33
2019-02-07T14:15:23.249Z,2.10
2019-02-07T14:18:52.431Z,1.90
2019-02-07T14:22:09.033Z,2.00
2019-02-07T14:25:30.759Z,2.10
2019-02-07T14:28:59.868Z,1.97
2019-02-07T14:32:04.104Z,2.00
2019-02-07T14:35:15.527Z,1.80
2019-02-07T14:38:18.933Z,1.97
2019-02-07T14:41:28.698Z,2.23
2019-02-07T14:44:23.449Z,2.00
2019-02-07T14:47:14.392Z,1.93
2019-02-07T14:49:57.684Z,1.70
2019-02-07T14:52:48.623Z,2.00
2019-02-07T14:55:34.165Z,1.90
2019-02-07T14:58:25.095Z,2.10
2019-02-07T15:01:08.580Z,1.83
2019-02-07T15:03:59.525Z,2.10
2019-02-07T15:06:43.744Z,2.00
2019-02-07T15:09:34.949Z,2.10
2019-02-07T15:12:18.359Z,1.87
2019-02-07T15:15:01.521Z,1.57
2019-02-07T15:17:52.439Z,1.80
2019-02-07T15:20:36.333Z,1.90
2019-02-07T15:23:27.252Z,1.37
2019-02-07T15:26:10.364Z,1.93
2019-02-07T15:29:01.276Z,1.50
2019-02-07T15:31:44.316Z,1.53
2019-02-07T15:34:35.951Z,2.67
2019-02-07T15:37:19.706Z,1.47
2019-02-07T15:40:51.853Z,1.90
2019-02-07T15:43:37.285Z,1.50
2019-02-07T15:46:28.304Z,1.50
2019-02-07T15:49:19.244Z,1.80
2019-02-07T15:52:23.907Z,1.70
2019-02-07T15:55:35.832Z,1.70
2019-02-07T15:58:21.928Z,1.50
2019-02-07T16:01:19.979Z,1.43
2019-02-07T16:04:25.696Z,1.60
2019-02-07T16:07:16.979Z,1.43
2019-02-07T16:10:21.750Z,1.40
2019-02-07T16:13:12.738Z,1.80
2019-02-07T16:15:56.272Z,1.70
2019-02-07T16:18:47.206Z,1.60
2019-02-07T16:21:30.427Z,1.77
2019-02-07T16:24:21.379Z,1.40
2019-02-07T16:27:04.790Z,1.70
2019-02-07T16:32:58.738Z,1.87
2019-02-07T16:35:49.802Z,1.60
2019-02-07T16:38:32.994Z,1.63
2019-02-07T16:41:23.948Z,1.80
2019-02-07T16:44:07.914Z,2.00
2019-02-07T16:46:58.853Z,2.00
2019-02-07T16:49:42.262Z,1.60
2019-02-07T16:52:33.220Z,1.67
2019-02-07T16:55:17.163Z,2.00
2019-02-07T16:58:08.092Z,1.83
2019-02-07T17:01:20.098Z,1.57
2019-02-07T17:04:03.531Z,2.27
2019-02-07T17:06:54.509Z,1.67
2019-02-07T17:09:42.186Z,2.47
2019-02-07T17:12:33.443Z,2.17
2019-02-07T17:15:18.014Z,1.83
2019-02-07T17:18:09.075Z,2.23
2019-02-07T17:20:52.468Z,1.60
2019-02-07T17:23:43.424Z,2.00
2019-02-07T17:26:26.517Z,2.10
2019-02-07T17:29:17.504Z,1.93
2019-02-07T17:32:00.826Z,2.47
2019-02-07T17:34:51.805Z,2.20
2019-02-07T17:37:35.662Z,1.70
2019-02-07T17:40:26.671Z,1.80
2019-02-07T17:43:17.622Z,2.00
2019-02-07T17:46:01.553Z,1.80
2019-02-07T17:48:52.523Z,1.73
2019-02-07T17:51:38.808Z,1.50
2019-02-07T17:54:28.845Z,1.33
2019-02-07T17:57:33.721Z,1.53
2019-02-07T18:00:47.652Z,1.30
2019-02-07T18:03:31.707Z,1.83
2019-02-07T18:06:22.687Z,1.50
2019-02-07T18:09:08.489Z,1.53
2019-02-07T18:11:51.771Z,1.50
2019-02-07T18:14:42.667Z,1.50
2019-02-07T18:17:26.554Z,1.30
2019-02-07T18:20:18.107Z,1.60
2019-02-07T18:23:01.244Z,1.30
2019-02-07T18:25:52.251Z,2.17
2019-02-07T18:28:38.179Z,1.43
2019-02-07T18:31:29.108Z,1.60
2019-02-07T18:34:12.566Z,1.67
2019-02-07T18:37:03.478Z,1.60
2019-02-07T18:40:09.818Z,1.77
2019-02-07T18:46:10.271Z,1.77
2019-02-07T18:49:01.617Z,1.80
2019-02-07T18:51:46.017Z,2.10
2019-02-07T18:54:37.031Z,1.70
2019-02-07T18:57:22.669Z,1.80
2019-02-07T19:04:09.897Z,2.80
2019-02-07T19:06:53.161Z,2.00
2019-02-07T19:09:46.173Z,2.07
2019-02-07T19:12:49.038Z,1.60
2019-02-07T19:15:52.848Z,1.80
2019-02-07T19:18:36.806Z,1.70
2019-02-07T19:21:28.013Z,1.57
2019-02-07T19:24:11.511Z,1.70
2019-02-07T19:27:02.441Z,2.13
2019-02-07T19:29:46.030Z,1.77
2019-02-07T19:32:36.943Z,1.90
2019-02-07T19:35:21.248Z,1.73
2019-02-07T19:38:12.161Z,1.80
2019-02-07T19:41:16.773Z,1.60
2019-02-07T19:44:07.721Z,1.37
2019-02-07T19:46:51.579Z,1.60
2019-02-07T19:49:42.543Z,1.20
2019-02-07T19:52:26.250Z,1.20
2019-02-07T19:55:29.561Z,1.47
2019-02-07T19:58:20.801Z,2.30
2019-02-07T20:01:05.550Z,1.17
2019-02-07T20:04:17.623Z,1.33
2019-02-07T20:07:01.585Z,1.13
2019-02-07T20:09:52.710Z,1.50
2019-02-07T20:12:36.637Z,1.30
2019-02-07T20:15:32.674Z,1.73
2019-02-07T20:18:16.716Z,1.73
2019-02-07T20:21:07.739Z,1.30
2019-02-07T20:23:51.676Z,1.20
2019-02-07T20:26:42.580Z,1.30
2019-02-07T20:29:26.368Z,1.40
2019-02-07T20:32:17.289Z,1.50
2019-02-07T20:35:00.725Z,1.40
2019-02-07T20:37:51.689Z,1.70
2019-02-07T20:40:35.285Z,1.40
2019-02-07T20:43:26.472Z,1.40
2019-02-07T20:46:09.813Z,1.77
2019-02-07T20:49:00.721Z,1.70
2019-02-07T20:51:44.359Z,0.83
2019-02-07T20:54:35.236Z,1.17
2019-02-07T20:57:18.382Z,1.20
2019-02-07T21:03:44.737Z,1.20
2019-02-07T21:06:28.766Z,1.70
2019-02-07T21:09:12.293Z,1.50
2019-02-07T21:12:03.201Z,1.50
2019-02-07T21:14:47.063Z,1.30
2019-02-07T21:17:37.980Z,1.63
2019-02-07T21:20:42.452Z,1.60
2019-02-07T21:23:33.366Z,1.40
2019-02-07T21:26:17.199Z,1.73
2019-02-07T21:29:10.431Z,1.33
2019-02-07T21:32:15.431Z,1.23
2019-02-07T21:35:07.002Z,1.30
2019-02-07T21:37:50.791Z,1.40
2019-02-07T21:40:41.703Z,1.50
2019-02-07T21:43:46.038Z,1.30
2019-02-07T21:46:36.937Z,1.40
2019-02-07T21:49:20.841Z,1.30
2019-02-07T21:52:11.813Z,1.50
2019-02-07T21:54:55.210Z,1.50
2019-02-07T21:57:46.314Z,1.20
2019-02-07T22:00:33.471Z,1.50
2019-02-07T22:03:24.434Z,1.30
2019-02-07T22:06:08.211Z,1.30
2019-02-07T22:08:59.407Z,1.10
2019-02-07T22:11:42.716Z,1.20
2019-02-07T22:14:33.639Z,1.20
2019-02-07T22:17:17.600Z,0.97
2019-02-07T22:20:12.356Z,1.37
2019-02-07T22:22:56.588Z,1.47
2019-02-07T22:25:47.484Z,1.27
2019-02-07T22:28:31.432Z,1.23
2019-02-07T22:31:22.400Z,1.33
2019-02-07T22:34:06.391Z,1.60
2019-02-07T22:36:57.425Z,1.20
2019-02-07T22:39:41.245Z,1.40
2019-02-07T22:42:32.246Z,1.40
2019-02-07T22:45:16.130Z,1.57
2019-02-07T22:48:08.392Z,1.27
2019-02-07T22:50:51.938Z,1.53
2019-02-07T22:53:42.847Z,1.70
2019-02-07T22:56:26.176Z,1.23
2019-02-07T22:59:17.079Z,1.17
2019-02-07T23:02:00.981Z,1.20
2019-02-07T23:04:51.857Z,1.33
2019-02-07T23:07:35.835Z,1.53
2019-02-07T23:10:27.069Z,2.00
2019-02-07T23:13:11.062Z,1.67
2019-02-07T23:16:01.975Z,1.30
2019-02-07T23:18:45.662Z,1.57
2019-02-07T23:21:36.556Z,1.80
2019-02-07T23:24:20.419Z,1.43
2019-02-07T23:27:11.760Z,1.80
2019-02-07T23:29:55.671Z,1.30
2019-02-07T23:32:46.635Z,1.30
2019-02-07T23:35:29.869Z,1.63
2019-02-07T23:38:20.828Z,1.87
2019-02-07T23:41:04.367Z,1.10
2019-02-07T23:43:55.280Z,1.37
2019-02-07T23:46:59.885Z,1.20
2019-02-07T23:49:43.259Z,1.13
2019-02-07T23:52:34.501Z,1.57
2019-02-07T23:55:17.890Z,1.07
2019-02-07T23:58:08.809Z,1.33
